sensor_id;sensor_type;location;lat;lon;timestamp;temperature;humidity
21508;DHT22;10915;54.352;9.074;2022-10-22T00:00:12;15.80;99.90
21508;DHT22;10915;54.352;9.074;2022-10-22T00:02:38;15.80;99.90
21508;DHT22;10915;54.352;9.074;2022-10-22T00:05:04;15.80;99.90
21508;DHT22;10915;54.352;9.074;2022-10-22T00:07:30;15.80;99.90
21508;DHT22;10915;54.352;9.074;2022-10-22T00:09:55;15.80;99.90
21508;DHT22;10915;54.352;9.074;2022-10-22T00:12:21;15.80;99.90
21508;DHT22;10915;54.352;9.074;2022-10-22T00:14:47;15.80;99.90
21508;DHT22;10915;54.352;9.074;2022-10-22T00:17:13;15.80;99.90
21508;DHT22;10915;54.352;9.074;2022-10-22T00:19:39;15.80;99.90
21508;DHT22;10915;54.352;9.074;2022-10-22T00:22:05;15.80;99.90
21508;DHT22;10915;54.352;9.074;2022-10-22T00:24:32;15.80;99.90
21508;DHT22;10915;54.352;9.074;2022-10-22T00:26:58;15.70;99.90
21508;DHT22;10915;54.352;9.074;2022-10-22T00:29:24;15.70;99.90
21508;DHT22;10915;54.352;9.074;2022-10-22T00:31:50;15.70;99.90
21508;DHT22;10915;54.352;9.074;2022-10-22T00:34:20;15.70;99.90
21508;DHT22;10915;54.352;9.074;2022-10-22T00:36:47;15.70;99.90
21508;DHT22;10915;54.352;9.074;2022-10-22T00:39:15;15.70;99.90
21508;DHT22;10915;54.352;9.074;2022-10-22T00:41:52;15.70;99.90
21508;DHT22;10915;54.352;9.074;2022-10-22T00:47:22;15.60;99.90
21508;DHT22;10915;54.352;9.074;2022-10-22T00:49:50;15.50;99.90
21508;DHT22;10915;54.352;9.074;2022-10-22T00:52:16;15.50;99.90
21508;DHT22;10915;54.352;9.074;2022-10-22T00:54:42;15.40;99.90
21508;DHT22;10915;54.352;9.074;2022-10-22T00:57:08;15.40;99.90
21508;DHT22;10915;54.352;9.074;2022-10-22T00:59:35;15.30;99.90
21508;DHT22;10915;54.352;9.074;2022-10-22T01:02:01;15.30;99.90
21508;DHT22;10915;54.352;9.074;2022-10-22T01:04:27;15.30;99.90
21508;DHT22;10915;54.352;9.074;2022-10-22T01:06:53;15.30;99.90
21508;DHT22;10915;54.352;9.074;2022-10-22T01:14:31;15.30;99.90
21508;DHT22;10915;54.352;9.074;2022-10-22T01:17:04;15.30;99.90
21508;DHT22;10915;54.352;9.074;2022-10-22T01:19:36;15.30;99.90
21508;DHT22;10915;54.352;9.074;2022-10-22T01:22:30;15.30;99.90
21508;DHT22;10915;54.352;9.074;2022-10-22T01:24:57;15.30;99.90
21508;DHT22;10915;54.352;9.074;2022-10-22T01:30:13;15.40;99.90
21508;DHT22;10915;54.352;9.074;2022-10-22T01:32:46;15.40;99.90
21508;DHT22;10915;54.352;9.074;2022-10-22T01:35:16;15.40;99.90
21508;DHT22;10915;54.352;9.074;2022-10-22T01:37:49;15.50;99.90
21508;DHT22;10915;54.352;9.074;2022-10-22T01:40:17;15.50;99.90
21508;DHT22;10915;54.352;9.074;2022-10-22T01:43:00;15.50;99.90
21508;DHT22;10915;54.352;9.074;2022-10-22T01:45:29;15.50;99.90
21508;DHT22;10915;54.352;9.074;2022-10-22T01:56:08;15.40;99.90
21508;DHT22;10915;54.352;9.074;2022-10-22T02:01:27;15.40;99.90
21508;DHT22;10915;54.352;9.074;2022-10-22T02:04:13;15.40;99.90
21508;DHT22;10915;54.352;9.074;2022-10-22T02:06:42;15.40;99.90
21508;DHT22;10915;54.352;9.074;2022-10-22T02:09:09;15.30;99.90
21508;DHT22;10915;54.352;9.074;2022-10-22T02:11:37;15.20;99.90
21508;DHT22;10915;54.352;9.074;2022-10-22T02:14:04;15.20;99.90
21508;DHT22;10915;54.352;9.074;2022-10-22T02:16:41;15.20;99.90
21508;DHT22;10915;54.352;9.074;2022-10-22T02:19:37;15.10;99.90
21508;DHT22;10915;54.352;9.074;2022-10-22T02:22:00;15.10;99.90
21508;DHT22;10915;54.352;9.074;2022-10-22T02:24:26;15.00;99.90
21508;DHT22;10915;54.352;9.074;2022-10-22T02:32:22;14.70;99.90
21508;DHT22;10915;54.352;9.074;2022-10-22T02:34:51;14.60;99.90
21508;DHT22;10915;54.352;9.074;2022-10-22T02:37:18;14.60;99.90
21508;DHT22;10915;54.352;9.074;2022-10-22T02:39:44;14.60;99.90
21508;DHT22;10915;54.352;9.074;2022-10-22T02:42:11;14.60;99.90
21508;DHT22;10915;54.352;9.074;2022-10-22T02:44:37;14.60;99.90
21508;DHT22;10915;54.352;9.074;2022-10-22T02:47:03;14.60;99.90
21508;DHT22;10915;54.352;9.074;2022-10-22T02:49:29;14.60;99.90
21508;DHT22;10915;54.352;9.074;2022-10-22T02:51:55;14.60;99.90
21508;DHT22;10915;54.352;9.074;2022-10-22T02:54:21;14.60;99.90
21508;DHT22;10915;54.352;9.074;2022-10-22T02:56:46;14.60;99.90
21508;DHT22;10915;54.352;9.074;2022-10-22T02:59:12;14.60;99.90
21508;DHT22;10915;54.352;9.074;2022-10-22T03:01:38;14.50;99.90
21508;DHT22;10915;54.352;9.074;2022-10-22T03:04:03;14.50;99.90
21508;DHT22;10915;54.352;9.074;2022-10-22T03:06:29;14.40;99.90
21508;DHT22;10915;54.352;9.074;2022-10-22T03:08:55;14.50;99.90
21508;DHT22;10915;54.352;9.074;2022-10-22T03:11:21;14.50;99.90
21508;DHT22;10915;54.352;9.074;2022-10-22T03:13:46;14.40;99.90
21508;DHT22;10915;54.352;9.074;2022-10-22T03:16:12;14.40;99.90
21508;DHT22;10915;54.352;9.074;2022-10-22T03:18:38;14.30;99.90
21508;DHT22;10915;54.352;9.074;2022-10-22T03:23:35;14.30;99.90
21508;DHT22;10915;54.352;9.074;2022-10-22T03:26:01;14.20;99.90
21508;DHT22;10915;54.352;9.074;2022-10-22T03:28:27;14.20;99.90
21508;DHT22;10915;54.352;9.074;2022-10-22T03:30:53;14.20;99.90
21508;DHT22;10915;54.352;9.074;2022-10-22T03:33:18;14.10;99.90
21508;DHT22;10915;54.352;9.074;2022-10-22T03:35:45;14.20;99.90
21508;DHT22;10915;54.352;9.074;2022-10-22T03:38:12;14.20;99.90
21508;DHT22;10915;54.352;9.074;2022-10-22T03:40:39;14.10;99.90
21508;DHT22;10915;54.352;9.074;2022-10-22T03:43:05;14.10;99.90
21508;DHT22;10915;54.352;9.074;2022-10-22T03:45:31;14.10;99.90
21508;DHT22;10915;54.352;9.074;2022-10-22T03:47:57;14.10;99.90
21508;DHT22;10915;54.352;9.074;2022-10-22T03:50:23;14.10;99.90
21508;DHT22;10915;54.352;9.074;2022-10-22T03:52:48;14.10;99.90
21508;DHT22;10915;54.352;9.074;2022-10-22T03:55:14;14.10;99.90
21508;DHT22;10915;54.352;9.074;2022-10-22T03:57:40;14.00;99.90
21508;DHT22;10915;54.352;9.074;2022-10-22T04:00:07;14.00;99.90
21508;DHT22;10915;54.352;9.074;2022-10-22T04:02:33;14.00;99.90
21508;DHT22;10915;54.352;9.074;2022-10-22T04:04:59;14.00;99.90
21508;DHT22;10915;54.352;9.074;2022-10-22T04:07:24;14.00;99.90
21508;DHT22;10915;54.352;9.074;2022-10-22T04:09:50;14.00;99.90
21508;DHT22;10915;54.352;9.074;2022-10-22T04:12:16;14.00;99.90
21508;DHT22;10915;54.352;9.074;2022-10-22T04:14:41;14.00;99.90
21508;DHT22;10915;54.352;9.074;2022-10-22T04:17:07;14.00;99.90
21508;DHT22;10915;54.352;9.074;2022-10-22T04:19:33;14.00;99.90
21508;DHT22;10915;54.352;9.074;2022-10-22T04:21:59;14.10;99.90
21508;DHT22;10915;54.352;9.074;2022-10-22T04:24:25;14.10;99.90
21508;DHT22;10915;54.352;9.074;2022-10-22T04:26:53;14.10;99.90
21508;DHT22;10915;54.352;9.074;2022-10-22T04:29:19;14.20;99.90
21508;DHT22;10915;54.352;9.074;2022-10-22T04:31:45;14.20;99.90
21508;DHT22;10915;54.352;9.074;2022-10-22T04:34:11;14.20;99.90
21508;DHT22;10915;54.352;9.074;2022-10-22T04:36:37;14.20;99.90
21508;DHT22;10915;54.352;9.074;2022-10-22T04:39:03;14.00;99.90
21508;DHT22;10915;54.352;9.074;2022-10-22T04:41:31;14.00;99.90
21508;DHT22;10915;54.352;9.074;2022-10-22T04:43:58;14.00;99.90
21508;DHT22;10915;54.352;9.074;2022-10-22T04:46:28;14.00;99.90
21508;DHT22;10915;54.352;9.074;2022-10-22T04:48:54;14.00;99.90
21508;DHT22;10915;54.352;9.074;2022-10-22T04:51:22;14.00;99.90
21508;DHT22;10915;54.352;9.074;2022-10-22T04:53:48;14.10;99.90
21508;DHT22;10915;54.352;9.074;2022-10-22T04:56:17;14.00;99.90
21508;DHT22;10915;54.352;9.074;2022-10-22T04:58:54;14.00;99.90
21508;DHT22;10915;54.352;9.074;2022-10-22T05:01:32;14.00;99.90
21508;DHT22;10915;54.352;9.074;2022-10-22T05:04:00;13.90;99.90
21508;DHT22;10915;54.352;9.074;2022-10-22T05:06:27;13.90;99.90
21508;DHT22;10915;54.352;9.074;2022-10-22T05:08:55;13.80;99.90
21508;DHT22;10915;54.352;9.074;2022-10-22T05:11:24;13.80;99.90
21508;DHT22;10915;54.352;9.074;2022-10-22T05:13:50;13.80;99.90
21508;DHT22;10915;54.352;9.074;2022-10-22T05:16:16;13.70;99.90
21508;DHT22;10915;54.352;9.074;2022-10-22T05:18:43;13.70;99.90
21508;DHT22;10915;54.352;9.074;2022-10-22T05:21:11;13.70;99.90
21508;DHT22;10915;54.352;9.074;2022-10-22T05:23:37;13.70;99.90
21508;DHT22;10915;54.352;9.074;2022-10-22T05:26:04;13.70;99.90
21508;DHT22;10915;54.352;9.074;2022-10-22T05:28:30;13.60;99.90
21508;DHT22;10915;54.352;9.074;2022-10-22T05:30:58;13.60;99.90
21508;DHT22;10915;54.352;9.074;2022-10-22T05:33:25;13.60;99.90
21508;DHT22;10915;54.352;9.074;2022-10-22T05:35:51;13.50;99.90
21508;DHT22;10915;54.352;9.074;2022-10-22T05:38:17;13.50;99.90
21508;DHT22;10915;54.352;9.074;2022-10-22T05:40:44;13.50;99.90
21508;DHT22;10915;54.352;9.074;2022-10-22T05:43:10;13.50;99.90
21508;DHT22;10915;54.352;9.074;2022-10-22T05:45:37;13.50;99.90
21508;DHT22;10915;54.352;9.074;2022-10-22T05:48:04;13.50;99.90
21508;DHT22;10915;54.352;9.074;2022-10-22T05:50:30;13.50;99.90
21508;DHT22;10915;54.352;9.074;2022-10-22T05:52:56;13.50;99.90
21508;DHT22;10915;54.352;9.074;2022-10-22T05:55:22;13.40;99.90
21508;DHT22;10915;54.352;9.074;2022-10-22T05:57:47;13.40;99.90
21508;DHT22;10915;54.352;9.074;2022-10-22T06:00:15;13.40;99.90
21508;DHT22;10915;54.352;9.074;2022-10-22T06:02:41;13.40;99.90
21508;DHT22;10915;54.352;9.074;2022-10-22T06:05:07;13.50;99.90
21508;DHT22;10915;54.352;9.074;2022-10-22T06:07:34;13.40;99.90
21508;DHT22;10915;54.352;9.074;2022-10-22T06:10:01;13.40;99.90
21508;DHT22;10915;54.352;9.074;2022-10-22T06:12:26;13.40;99.90
21508;DHT22;10915;54.352;9.074;2022-10-22T06:14:52;13.40;99.90
21508;DHT22;10915;54.352;9.074;2022-10-22T06:17:18;13.40;99.90
21508;DHT22;10915;54.352;9.074;2022-10-22T06:19:44;13.40;99.90
21508;DHT22;10915;54.352;9.074;2022-10-22T06:22:10;13.40;99.90
21508;DHT22;10915;54.352;9.074;2022-10-22T06:24:35;13.40;99.90
21508;DHT22;10915;54.352;9.074;2022-10-22T06:27:01;13.30;99.90
21508;DHT22;10915;54.352;9.074;2022-10-22T06:29:27;13.30;99.90
21508;DHT22;10915;54.352;9.074;2022-10-22T06:31:53;13.30;99.90
21508;DHT22;10915;54.352;9.074;2022-10-22T06:34:18;13.30;99.90
21508;DHT22;10915;54.352;9.074;2022-10-22T06:36:45;13.30;99.90
21508;DHT22;10915;54.352;9.074;2022-10-22T06:39:15;13.30;99.90
21508;DHT22;10915;54.352;9.074;2022-10-22T06:41:41;13.30;99.90
21508;DHT22;10915;54.352;9.074;2022-10-22T06:44:15;13.30;99.90
21508;DHT22;10915;54.352;9.074;2022-10-22T06:46:41;13.30;99.90
21508;DHT22;10915;54.352;9.074;2022-10-22T06:49:12;13.30;99.90
21508;DHT22;10915;54.352;9.074;2022-10-22T06:51:38;13.30;99.90
21508;DHT22;10915;54.352;9.074;2022-10-22T06:54:04;13.30;99.90
21508;DHT22;10915;54.352;9.074;2022-10-22T06:56:30;13.30;99.90
21508;DHT22;10915;54.352;9.074;2022-10-22T06:58:57;13.30;99.90
21508;DHT22;10915;54.352;9.074;2022-10-22T07:01:27;13.30;99.90
21508;DHT22;10915;54.352;9.074;2022-10-22T07:03:54;13.30;99.90
21508;DHT22;10915;54.352;9.074;2022-10-22T07:06:21;13.40;99.90
21508;DHT22;10915;54.352;9.074;2022-10-22T07:08:48;13.40;99.90
21508;DHT22;10915;54.352;9.074;2022-10-22T07:11:17;13.30;99.90
21508;DHT22;10915;54.352;9.074;2022-10-22T07:13:43;13.30;99.90
21508;DHT22;10915;54.352;9.074;2022-10-22T07:16:10;13.30;99.90
21508;DHT22;10915;54.352;9.074;2022-10-22T07:18:37;13.30;99.90
21508;DHT22;10915;54.352;9.074;2022-10-22T07:21:03;13.40;99.90
21508;DHT22;10915;54.352;9.074;2022-10-22T07:23:29;13.40;99.90
21508;DHT22;10915;54.352;9.074;2022-10-22T07:25:55;13.40;99.90
21508;DHT22;10915;54.352;9.074;2022-10-22T07:28:21;13.40;99.90
21508;DHT22;10915;54.352;9.074;2022-10-22T07:31:05;13.40;99.90
21508;DHT22;10915;54.352;9.074;2022-10-22T07:33:34;13.40;99.90
21508;DHT22;10915;54.352;9.074;2022-10-22T07:36:01;13.40;99.90
21508;DHT22;10915;54.352;9.074;2022-10-22T07:38:28;13.50;99.90
21508;DHT22;10915;54.352;9.074;2022-10-22T07:40:54;13.50;99.90
21508;DHT22;10915;54.352;9.074;2022-10-22T07:43:20;13.50;99.90
21508;DHT22;10915;54.352;9.074;2022-10-22T07:45:46;13.50;99.90
21508;DHT22;10915;54.352;9.074;2022-10-22T07:48:12;13.60;99.90
21508;DHT22;10915;54.352;9.074;2022-10-22T07:50:38;13.60;99.90
21508;DHT22;10915;54.352;9.074;2022-10-22T07:53:03;13.60;99.90
21508;DHT22;10915;54.352;9.074;2022-10-22T07:55:29;13.70;99.90
21508;DHT22;10915;54.352;9.074;2022-10-22T07:57:55;13.70;99.90
21508;DHT22;10915;54.352;9.074;2022-10-22T08:00:21;13.80;99.90
21508;DHT22;10915;54.352;9.074;2022-10-22T08:02:47;13.80;99.90
21508;DHT22;10915;54.352;9.074;2022-10-22T08:05:13;13.80;99.90
21508;DHT22;10915;54.352;9.074;2022-10-22T08:07:39;13.80;99.90
21508;DHT22;10915;54.352;9.074;2022-10-22T08:10:05;13.90;99.90
21508;DHT22;10915;54.352;9.074;2022-10-22T08:12:31;14.00;99.90
21508;DHT22;10915;54.352;9.074;2022-10-22T08:14:57;14.10;99.90
21508;DHT22;10915;54.352;9.074;2022-10-22T08:17:23;14.20;99.90
21508;DHT22;10915;54.352;9.074;2022-10-22T08:19:49;14.30;99.90
21508;DHT22;10915;54.352;9.074;2022-10-22T08:22:15;14.40;99.90
21508;DHT22;10915;54.352;9.074;2022-10-22T08:24:40;14.50;99.90
21508;DHT22;10915;54.352;9.074;2022-10-22T08:27:06;14.60;99.90
21508;DHT22;10915;54.352;9.074;2022-10-22T08:29:32;14.60;99.90
21508;DHT22;10915;54.352;9.074;2022-10-22T08:31:57;14.60;99.90
21508;DHT22;10915;54.352;9.074;2022-10-22T08:34:26;14.80;99.90
21508;DHT22;10915;54.352;9.074;2022-10-22T08:36:51;14.80;99.90
21508;DHT22;10915;54.352;9.074;2022-10-22T08:39:17;14.80;99.90
21508;DHT22;10915;54.352;9.074;2022-10-22T08:42:10;14.80;99.90
21508;DHT22;10915;54.352;9.074;2022-10-22T08:50:37;14.90;99.90
21508;DHT22;10915;54.352;9.074;2022-10-22T08:53:11;15.10;99.90
21508;DHT22;10915;54.352;9.074;2022-10-22T08:55:37;15.20;99.90
21508;DHT22;10915;54.352;9.074;2022-10-22T09:01:00;15.30;99.90
21508;DHT22;10915;54.352;9.074;2022-10-22T09:06:08;15.60;99.90
21508;DHT22;10915;54.352;9.074;2022-10-22T09:08:36;15.70;99.90
21508;DHT22;10915;54.352;9.074;2022-10-22T09:13:40;16.00;99.90
21508;DHT22;10915;54.352;9.074;2022-10-22T09:16:18;16.00;99.90
21508;DHT22;10915;54.352;9.074;2022-10-22T09:22:26;16.20;99.90
21508;DHT22;10915;54.352;9.074;2022-10-22T09:27:06;16.50;99.90
21508;DHT22;10915;54.352;9.074;2022-10-22T09:29:35;16.60;99.90
21508;DHT22;10915;54.352;9.074;2022-10-22T09:32:01;16.70;99.90
21508;DHT22;10915;54.352;9.074;2022-10-22T09:34:30;16.80;99.90
21508;DHT22;10915;54.352;9.074;2022-10-22T09:37:01;16.90;99.90
21508;DHT22;10915;54.352;9.074;2022-10-22T09:39:36;17.00;99.90
21508;DHT22;10915;54.352;9.074;2022-10-22T09:42:02;17.20;99.90
21508;DHT22;10915;54.352;9.074;2022-10-22T09:44:28;17.30;99.90
21508;DHT22;10915;54.352;9.074;2022-10-22T09:46:57;17.40;99.90
21508;DHT22;10915;54.352;9.074;2022-10-22T09:49:23;17.50;99.90
21508;DHT22;10915;54.352;9.074;2022-10-22T09:51:57;17.60;99.90
21508;DHT22;10915;54.352;9.074;2022-10-22T09:57:20;17.80;99.90
21508;DHT22;10915;54.352;9.074;2022-10-22T09:59:48;17.90;99.90
21508;DHT22;10915;54.352;9.074;2022-10-22T10:02:23;17.90;99.90
21508;DHT22;10915;54.352;9.074;2022-10-22T10:04:56;18.00;99.90
21508;DHT22;10915;54.352;9.074;2022-10-22T10:07:24;18.10;99.90
21508;DHT22;10915;54.352;9.074;2022-10-22T10:09:52;18.20;99.90
21508;DHT22;10915;54.352;9.074;2022-10-22T10:17:59;18.50;99.90
21508;DHT22;10915;54.352;9.074;2022-10-22T10:26:12;18.70;99.90
21508;DHT22;10915;54.352;9.074;2022-10-22T10:42:14;19.10;99.90
21508;DHT22;10915;54.352;9.074;2022-10-22T10:50:17;19.10;99.90
21508;DHT22;10915;54.352;9.074;2022-10-22T10:58:45;19.00;99.90
21508;DHT22;10915;54.352;9.074;2022-10-22T11:06:36;19.00;99.90
21508;DHT22;10915;54.352;9.074;2022-10-22T11:09:28;19.00;99.90
21508;DHT22;10915;54.352;9.074;2022-10-22T11:12:16;18.90;99.90
21508;DHT22;10915;54.352;9.074;2022-10-22T11:17:22;18.90;99.90
21508;DHT22;10915;54.352;9.074;2022-10-22T11:25:24;19.10;99.90
21508;DHT22;10915;54.352;9.074;2022-10-22T11:28:53;19.20;99.90
21508;DHT22;10915;54.352;9.074;2022-10-22T11:31:02;19.30;99.90
21508;DHT22;10915;54.352;9.074;2022-10-22T11:33:38;19.30;99.90
21508;DHT22;10915;54.352;9.074;2022-10-22T11:36:07;19.30;99.90
21508;DHT22;10915;54.352;9.074;2022-10-22T11:38:35;19.40;99.90
21508;DHT22;10915;54.352;9.074;2022-10-22T11:43:51;19.30;99.90
21508;DHT22;10915;54.352;9.074;2022-10-22T11:48:43;19.10;99.90
21508;DHT22;10915;54.352;9.074;2022-10-22T11:53:56;19.00;99.90
21508;DHT22;10915;54.352;9.074;2022-10-22T11:56:25;19.00;99.90
21508;DHT22;10915;54.352;9.074;2022-10-22T11:58:53;19.00;99.90
21508;DHT22;10915;54.352;9.074;2022-10-22T12:01:28;19.00;99.90
21508;DHT22;10915;54.352;9.074;2022-10-22T12:06:24;19.00;99.90
21508;DHT22;10915;54.352;9.074;2022-10-22T12:08:59;19.00;99.90
21508;DHT22;10915;54.352;9.074;2022-10-22T12:11:48;19.00;99.90
21508;DHT22;10915;54.352;9.074;2022-10-22T12:16:55;19.10;99.90
21508;DHT22;10915;54.352;9.074;2022-10-22T12:21:52;19.30;99.90
21508;DHT22;10915;54.352;9.074;2022-10-22T12:24:21;19.30;99.90
21508;DHT22;10915;54.352;9.074;2022-10-22T12:26:47;19.40;99.90
21508;DHT22;10915;54.352;9.074;2022-10-22T12:29:18;19.40;99.90
21508;DHT22;10915;54.352;9.074;2022-10-22T12:31:45;19.40;99.90
21508;DHT22;10915;54.352;9.074;2022-10-22T12:34:16;19.40;99.90
21508;DHT22;10915;54.352;9.074;2022-10-22T12:36:42;19.40;99.90
21508;DHT22;10915;54.352;9.074;2022-10-22T12:39:16;19.20;99.90
21508;DHT22;10915;54.352;9.074;2022-10-22T12:41:43;19.20;99.90
21508;DHT22;10915;54.352;9.074;2022-10-22T12:44:14;19.10;99.90
21508;DHT22;10915;54.352;9.074;2022-10-22T12:46:42;19.10;99.90
21508;DHT22;10915;54.352;9.074;2022-10-22T12:49:21;19.00;99.90
21508;DHT22;10915;54.352;9.074;2022-10-22T12:51:48;19.00;99.90
21508;DHT22;10915;54.352;9.074;2022-10-22T12:56:47;18.80;99.90
21508;DHT22;10915;54.352;9.074;2022-10-22T12:59:22;18.70;99.90
21508;DHT22;10915;54.352;9.074;2022-10-22T13:01:50;18.50;99.90
21508;DHT22;10915;54.352;9.074;2022-10-22T13:09:40;18.50;99.90
21508;DHT22;10915;54.352;9.074;2022-10-22T13:12:08;18.40;99.90
21508;DHT22;10915;54.352;9.074;2022-10-22T13:14:39;18.40;99.90
21508;DHT22;10915;54.352;9.074;2022-10-22T13:17:15;18.40;99.90
21508;DHT22;10915;54.352;9.074;2022-10-22T13:22:36;18.40;99.90
21508;DHT22;10915;54.352;9.074;2022-10-22T13:25:26;18.50;99.90
21508;DHT22;10915;54.352;9.074;2022-10-22T13:30:33;18.50;99.90
21508;DHT22;10915;54.352;9.074;2022-10-22T13:33:18;18.60;99.90
21508;DHT22;10915;54.352;9.074;2022-10-22T13:35:45;18.60;99.90
21508;DHT22;10915;54.352;9.074;2022-10-22T13:38:19;18.70;99.90
21508;DHT22;10915;54.352;9.074;2022-10-22T13:40:45;18.70;99.90
21508;DHT22;10915;54.352;9.074;2022-10-22T13:43:11;18.70;99.90
21508;DHT22;10915;54.352;9.074;2022-10-22T13:45:36;18.70;99.90
21508;DHT22;10915;54.352;9.074;2022-10-22T13:48:02;18.70;99.90
21508;DHT22;10915;54.352;9.074;2022-10-22T13:50:28;18.70;99.90
21508;DHT22;10915;54.352;9.074;2022-10-22T13:52:56;18.50;99.90
21508;DHT22;10915;54.352;9.074;2022-10-22T13:55:27;18.40;99.90
21508;DHT22;10915;54.352;9.074;2022-10-22T13:58:09;18.30;99.90
21508;DHT22;10915;54.352;9.074;2022-10-22T14:00:37;18.20;99.90
21508;DHT22;10915;54.352;9.074;2022-10-22T14:03:04;18.10;99.90
21508;DHT22;10915;54.352;9.074;2022-10-22T14:05:30;18.00;99.90
21508;DHT22;10915;54.352;9.074;2022-10-22T14:08:00;18.10;99.90
21508;DHT22;10915;54.352;9.074;2022-10-22T14:10:26;18.10;99.90
21508;DHT22;10915;54.352;9.074;2022-10-22T14:12:52;18.10;99.90
21508;DHT22;10915;54.352;9.074;2022-10-22T14:15:20;18.20;99.90
21508;DHT22;10915;54.352;9.074;2022-10-22T14:17:50;18.30;99.90
21508;DHT22;10915;54.352;9.074;2022-10-22T14:20:22;18.40;99.90
21508;DHT22;10915;54.352;9.074;2022-10-22T14:22:49;18.40;99.90
21508;DHT22;10915;54.352;9.074;2022-10-22T14:25:17;18.50;99.90
21508;DHT22;10915;54.352;9.074;2022-10-22T14:27:43;18.50;99.90
21508;DHT22;10915;54.352;9.074;2022-10-22T14:30:16;18.50;99.90
21508;DHT22;10915;54.352;9.074;2022-10-22T14:32:42;18.50;99.90
21508;DHT22;10915;54.352;9.074;2022-10-22T14:35:14;18.40;99.90
21508;DHT22;10915;54.352;9.074;2022-10-22T14:37:40;18.30;99.90
21508;DHT22;10915;54.352;9.074;2022-10-22T14:40:08;18.20;99.90
21508;DHT22;10915;54.352;9.074;2022-10-22T14:42:37;18.10;99.90
21508;DHT22;10915;54.352;9.074;2022-10-22T14:45:05;18.00;99.90
21508;DHT22;10915;54.352;9.074;2022-10-22T14:47:31;18.00;99.90
21508;DHT22;10915;54.352;9.074;2022-10-22T14:49:56;17.90;99.90
21508;DHT22;10915;54.352;9.074;2022-10-22T14:52:22;17.80;99.90
21508;DHT22;10915;54.352;9.074;2022-10-22T14:54:48;17.80;99.90
21508;DHT22;10915;54.352;9.074;2022-10-22T14:57:14;17.70;99.90
21508;DHT22;10915;54.352;9.074;2022-10-22T14:59:41;17.60;99.90
21508;DHT22;10915;54.352;9.074;2022-10-22T15:02:10;17.50;99.90
21508;DHT22;10915;54.352;9.074;2022-10-22T15:04:36;17.50;99.90
21508;DHT22;10915;54.352;9.074;2022-10-22T15:07:02;17.40;99.90
21508;DHT22;10915;54.352;9.074;2022-10-22T15:09:28;17.40;99.90
21508;DHT22;10915;54.352;9.074;2022-10-22T15:11:54;17.40;99.90
21508;DHT22;10915;54.352;9.074;2022-10-22T15:14:20;17.40;99.90
21508;DHT22;10915;54.352;9.074;2022-10-22T15:16:45;17.40;99.90
21508;DHT22;10915;54.352;9.074;2022-10-22T15:19:11;17.40;99.90
21508;DHT22;10915;54.352;9.074;2022-10-22T15:21:37;17.40;99.90
21508;DHT22;10915;54.352;9.074;2022-10-22T15:24:03;17.40;99.90
21508;DHT22;10915;54.352;9.074;2022-10-22T15:26:29;17.30;99.90
21508;DHT22;10915;54.352;9.074;2022-10-22T15:28:55;17.20;99.90
21508;DHT22;10915;54.352;9.074;2022-10-22T15:31:42;17.10;99.90
21508;DHT22;10915;54.352;9.074;2022-10-22T15:34:08;17.10;99.90
21508;DHT22;10915;54.352;9.074;2022-10-22T15:36:33;17.00;99.90
21508;DHT22;10915;54.352;9.074;2022-10-22T15:38:59;16.90;99.90
21508;DHT22;10915;54.352;9.074;2022-10-22T15:41:24;16.80;99.90
21508;DHT22;10915;54.352;9.074;2022-10-22T15:43:50;16.80;99.90
21508;DHT22;10915;54.352;9.074;2022-10-22T15:46:18;16.80;99.90
21508;DHT22;10915;54.352;9.074;2022-10-22T15:48:44;16.80;99.90
21508;DHT22;10915;54.352;9.074;2022-10-22T15:51:17;16.70;99.90
21508;DHT22;10915;54.352;9.074;2022-10-22T15:53:43;16.60;99.90
21508;DHT22;10915;54.352;9.074;2022-10-22T15:56:14;16.60;99.90
21508;DHT22;10915;54.352;9.074;2022-10-22T15:58:40;16.50;99.90
21508;DHT22;10915;54.352;9.074;2022-10-22T16:01:08;16.50;99.90
21508;DHT22;10915;54.352;9.074;2022-10-22T16:03:34;16.50;99.90
21508;DHT22;10915;54.352;9.074;2022-10-22T16:06:00;16.50;99.90
21508;DHT22;10915;54.352;9.074;2022-10-22T16:08:26;16.40;99.90
21508;DHT22;10915;54.352;9.074;2022-10-22T16:10:52;16.40;99.90
21508;DHT22;10915;54.352;9.074;2022-10-22T16:13:19;16.40;99.90
21508;DHT22;10915;54.352;9.074;2022-10-22T16:15:49;16.30;99.90
21508;DHT22;10915;54.352;9.074;2022-10-22T16:18:16;16.30;99.90
21508;DHT22;10915;54.352;9.074;2022-10-22T16:20:42;16.30;99.90
21508;DHT22;10915;54.352;9.074;2022-10-22T16:23:08;16.30;99.90
21508;DHT22;10915;54.352;9.074;2022-10-22T16:25:40;16.30;99.90
21508;DHT22;10915;54.352;9.074;2022-10-22T16:28:07;16.20;99.90
21508;DHT22;10915;54.352;9.074;2022-10-22T16:30:34;16.20;99.90
21508;DHT22;10915;54.352;9.074;2022-10-22T16:33:00;16.10;99.90
21508;DHT22;10915;54.352;9.074;2022-10-22T16:35:27;16.10;99.90
21508;DHT22;10915;54.352;9.074;2022-10-22T16:37:52;16.10;99.90
21508;DHT22;10915;54.352;9.074;2022-10-22T16:40:18;16.10;99.90
21508;DHT22;10915;54.352;9.074;2022-10-22T16:42:44;16.00;99.90
21508;DHT22;10915;54.352;9.074;2022-10-22T16:45:10;16.00;99.90
21508;DHT22;10915;54.352;9.074;2022-10-22T16:47:36;16.00;99.90
21508;DHT22;10915;54.352;9.074;2022-10-22T16:50:01;15.90;99.90
21508;DHT22;10915;54.352;9.074;2022-10-22T16:52:27;15.90;99.90
21508;DHT22;10915;54.352;9.074;2022-10-22T16:54:53;15.90;99.90
21508;DHT22;10915;54.352;9.074;2022-10-22T16:57:20;15.90;99.90
21508;DHT22;10915;54.352;9.074;2022-10-22T16:59:46;15.90;99.90
21508;DHT22;10915;54.352;9.074;2022-10-22T17:02:12;15.90;99.90
21508;DHT22;10915;54.352;9.074;2022-10-22T17:04:38;15.90;99.90
21508;DHT22;10915;54.352;9.074;2022-10-22T17:07:03;15.90;99.90
21508;DHT22;10915;54.352;9.074;2022-10-22T17:09:29;15.90;99.90
21508;DHT22;10915;54.352;9.074;2022-10-22T17:11:55;15.90;99.90
21508;DHT22;10915;54.352;9.074;2022-10-22T17:14:20;15.90;99.90
21508;DHT22;10915;54.352;9.074;2022-10-22T17:16:46;15.80;99.90
21508;DHT22;10915;54.352;9.074;2022-10-22T17:19:19;15.80;99.90
21508;DHT22;10915;54.352;9.074;2022-10-22T17:21:45;15.80;99.90
21508;DHT22;10915;54.352;9.074;2022-10-22T17:24:11;15.80;99.90
21508;DHT22;10915;54.352;9.074;2022-10-22T17:26:36;15.80;99.90
21508;DHT22;10915;54.352;9.074;2022-10-22T17:29:03;15.80;99.90
21508;DHT22;10915;54.352;9.074;2022-10-22T17:31:33;15.80;99.90
21508;DHT22;10915;54.352;9.074;2022-10-22T17:34:09;15.80;99.90
21508;DHT22;10915;54.352;9.074;2022-10-22T17:36:45;15.80;99.90
21508;DHT22;10915;54.352;9.074;2022-10-22T17:39:18;15.70;99.90
21508;DHT22;10915;54.352;9.074;2022-10-22T17:41:45;15.70;99.90
21508;DHT22;10915;54.352;9.074;2022-10-22T17:44:11;15.70;99.90
21508;DHT22;10915;54.352;9.074;2022-10-22T17:46:38;15.70;99.90